Time;durP1;ratioP1;P1;durP2;ratioP2;P2;SDS_P1;SDS_P2;PMS_P1;PMS_P2;Temp;Humidity;BMP_temperature;BMP_pressure;BME280_temperature;BME280_humidity;BME280_pressure;Samples;Min_cycle;Max_cycle;Signal;HPM_P1;HPM_P2
2022/11/03 00:01:52;;;;;;;8.80;2.53;;;10.30;99.90;;;;;;4971175;28;20042;-78
2022/11/03 00:04:19;;;;;;;7.07;2.30;;;10.30;99.90;;;;;;4969743;28;20042;-78
2022/11/03 00:06:49;;;;;;;7.50;2.45;;;10.30;99.90;;;;;;4987838;28;20560;-78
2022/11/03 00:09:17;;;;;;;13.63;2.58;;;10.40;99.90;;;;;;4988413;28;20046;-79
2022/11/03 00:11:45;;;;;;;9.35;2.50;;;10.40;99.90;;;;;;4988256;28;20042;-78
2022/11/03 00:14:11;;;;;;;8.20;2.25;;;10.40;99.90;;;;;;4981731;28;20149;-78
2022/11/03 01:37:41;;;;;;;10.25;2.33;;;9.70;99.90;;;;;;3574244;28;22018;-78
2022/11/03 01:40:07;;;;;;;7.80;2.55;;;9.70;99.90;;;;;;4981149;28;20062;-78
2022/11/03 01:42:33;;;;;;;9.05;3.08;;;9.70;99.90;;;;;;4989752;28;20046;-78
2022/11/03 01:44:59;;;;;;;9.80;2.58;;;9.80;99.90;;;;;;4987412;28;20469;-78
2022/11/03 01:47:31;;;;;;;9.32;2.67;;;9.80;99.90;;;;;;4972632;28;20424;-78
2022/11/03 01:50:03;;;;;;;9.57;2.33;;;9.70;99.90;;;;;;4981683;28;20077;-78
2022/11/03 01:52:49;;;;;;;11.75;2.90;;;9.70;99.90;;;;;;4989353;28;20218;-78
2022/11/03 01:55:18;;;;;;;13.15;2.58;;;9.80;99.90;;;;;;4988972;28;20054;-78
2022/11/03 01:57:58;;;;;;;7.82;2.25;;;9.80;99.90;;;;;;4989511;28;20538;-78
2022/11/03 02:00:24;;;;;;;9.70;2.80;;;9.80;99.90;;;;;;4970650;28;20047;-78
2022/11/03 02:02:50;;;;;;;10.07;2.50;;;9.80;99.90;;;;;;4970650;28;20417;-78
2022/11/03 02:05:17;;;;;;;8.57;2.20;;;9.80;99.90;;;;;;4977864;28;20050;-78
2022/11/03 02:07:48;;;;;;;9.48;2.80;;;9.70;99.90;;;;;;4989790;28;20050;-78
2022/11/03 02:10:14;;;;;;;8.50;2.47;;;9.70;99.90;;;;;;4989969;28;20819;-78
2022/11/03 02:12:41;;;;;;;7.85;2.60;;;9.70;99.90;;;;;;4973508;28;20133;-79
2022/11/03 02:15:12;;;;;;;8.00;2.88;;;9.70;99.90;;;;;;4989644;28;20050;-78
2022/11/03 02:17:40;;;;;;;10.80;2.40;;;9.70;99.90;;;;;;4989443;28;20096;-78
2022/11/03 02:20:07;;;;;;;9.07;2.35;;;9.70;99.90;;;;;;4989710;28;20568;-78
2022/11/03 02:22:39;;;;;;;10.38;2.65;;;9.80;99.90;;;;;;4990116;28;20042;-78
2022/11/03 02:25:14;;;;;;;9.07;2.90;;;9.90;99.90;;;;;;4987616;28;20047;-79
2022/11/03 02:27:39;;;;;;;12.55;3.05;;;9.90;99.90;;;;;;4988741;28;20312;-78
2022/11/03 02:30:06;;;;;;;6.57;2.30;;;9.90;99.90;;;;;;4987680;28;20047;-79
2022/11/03 02:33:09;;;;;;;12.20;2.83;;;9.90;99.90;;;;;;4987187;28;20050;-78
2022/11/03 02:35:45;;;;;;;8.68;2.25;;;9.90;99.90;;;;;;4990226;28;20046;-78
2022/11/03 02:38:15;;;;;;;10.00;2.00;;;9.90;99.90;;;;;;4987859;28;20050;-78
2022/11/03 02:40:45;;;;;;;9.20;2.35;;;9.90;99.90;;;;;;4987979;28;20125;-78
2022/11/03 02:43:12;;;;;;;9.00;2.50;;;9.90;99.90;;;;;;4987454;28;20100;-78
2022/11/03 02:45:39;;;;;;;5.22;2.60;;;9.90;99.90;;;;;;4990064;28;20058;-78
2022/11/03 02:48:05;;;;;;;6.60;2.10;;;10.70;99.90;;;;;;4985223;28;20123;-78
2022/11/03 02:50:33;;;;;;;13.57;3.05;;;9.90;99.90;;;;;;4985625;28;20042;-78
2022/11/03 02:52:59;;;;;;;8.05;2.33;;;10.00;99.90;;;;;;4990897;28;20054;-79
2022/11/03 02:55:58;;;;;;;10.30;3.03;;;10.00;99.90;;;;;;4988552;28;20053;-78
2022/11/03 02:58:34;;;;;;;9.55;2.38;;;10.00;99.90;;;;;;4990337;28;20133;-78
2022/11/03 03:01:17;;;;;;;9.18;3.33;;;10.00;99.90;;;;;;4970702;28;20053;-78
2022/11/03 03:03:56;;;;;;;6.55;2.13;;;10.00;99.90;;;;;;4989318;28;20054;-78
2022/11/03 03:06:32;;;;;;;6.13;2.03;;;10.00;99.90;;;;;;4989353;28;20108;-78
2022/11/03 03:09:06;;;;;;;10.80;2.58;;;10.00;99.90;;;;;;4989817;28;20108;-78
2022/11/03 03:11:37;;;;;;;6.03;2.15;;;10.00;99.90;;;;;;4984967;28;20049;-78
2022/11/03 03:14:10;;;;;;;14.82;3.15;;;10.00;99.90;;;;;;4972275;28;20088;-78
2022/11/03 03:16:47;;;;;;;11.60;2.55;;;10.10;99.90;;;;;;4988794;28;20489;-78
2022/11/03 03:19:46;;;;;;;8.07;2.90;;;10.10;99.90;;;;;;4988612;28;20050;-78
2022/11/03 03:22:38;;;;;;;9.07;2.40;;;10.10;99.90;;;;;;4970921;28;20043;-78
2022/11/03 03:25:09;;;;;;;11.30;2.60;;;10.10;99.90;;;;;;4971964;28;20189;-79
2022/11/03 03:27:40;;;;;;;8.45;2.40;;;10.10;99.90;;;;;;4988819;28;20046;-78
2022/11/03 03:30:06;;;;;;;7.80;2.17;;;10.10;99.90;;;;;;4987319;28;20086;-78
2022/11/03 03:32:39;;;;;;;8.95;2.10;;;10.10;99.90;;;;;;4971732;28;20047;-78
2022/11/03 03:35:06;;;;;;;;;;;10.00;99.90;;;;;;4981226;28;20038;-78
2022/11/03 03:37:36;;;;;;;6.65;1.73;;;9.90;99.90;;;;;;4987561;28;19921;-78
2022/11/03 03:40:07;;;;;;;6.88;2.47;;;9.90;99.90;;;;;;4988825;28;20054;-78
2022/11/03 03:42:36;;;;;;;6.03;2.50;;;10.00;99.90;;;;;;4987704;28;20129;-78
2022/11/03 03:45:05;;;;;;;6.20;2.00;;;10.00;99.90;;;;;;4988271;28;20050;-78
2022/11/03 03:47:33;;;;;;;8.57;2.63;;;9.90;99.90;;;;;;4986789;28;20078;-78
2022/11/03 03:50:00;;;;;;;7.68;2.70;;;9.90;99.90;;;;;;4987754;28;20050;-78
2022/11/03 03:52:26;;;;;;;10.07;3.15;;;9.90;99.90;;;;;;4988878;28;20038;-78
2022/11/03 03:54:53;;;;;;;7.97;2.90;;;10.00;99.90;;;;;;4986668;28;20038;-79
2022/11/03 03:57:22;;;;;;;13.15;2.95;;;9.90;99.90;;;;;;4988434;28;20172;-79
2022/11/03 03:59:47;;;;;;;10.55;2.47;;;9.90;99.90;;;;;;4986090;28;20046;-78
2022/11/03 04:02:14;;;;;;;10.43;2.25;;;9.90;99.90;;;;;;4987355;28;20493;-78
2022/11/03 04:04:39;;;;;;;9.63;2.72;;;9.90;99.90;;;;;;4988073;28;20072;-78
2022/11/03 04:09:50;;;;;;;5.20;2.05;;;9.90;99.90;;;;;;4987370;28;20846;-79
2022/11/03 04:23:16;;;;;;;9.23;2.90;;;9.80;99.90;;;;;;4988189;28;20058;-78
2022/11/03 04:25:47;;;;;;;11.02;2.92;;;9.90;99.90;;;;;;4968887;28;20535;-78
2022/11/03 04:28:14;;;;;;;11.40;2.90;;;9.90;99.90;;;;;;4971406;28;20058;-78
2022/11/03 04:30:39;;;;;;;8.65;2.20;;;9.80;99.90;;;;;;4984539;28;20800;-79
2022/11/03 04:33:17;;;;;;;7.25;2.80;;;9.80;99.90;;;;;;4987018;28;20046;-78
2022/11/03 04:35:43;;;;;;;10.73;3.10;;;9.80;99.90;;;;;;4987060;28;20133;-79
2022/11/03 04:38:12;;;;;;;10.85;2.33;;;9.80;99.90;;;;;;4986808;28;20050;-78
2022/11/03 04:40:43;;;;;;;6.35;2.28;;;9.70;99.90;;;;;;4985076;28;20089;-78
2022/11/03 04:43:13;;;;;;;8.85;2.33;;;9.70;99.90;;;;;;4987771;28;20412;-78
2022/11/03 04:45:41;;;;;;;6.43;2.10;;;9.70;99.90;;;;;;4969818;28;20046;-78
2022/11/03 04:48:22;;;;;;;8.68;2.97;;;9.70;99.90;;;;;;4986347;28;20042;-78
2022/11/03 04:50:50;;;;;;;13.10;3.17;;;9.70;99.90;;;;;;4986926;28;20042;-78
2022/11/03 04:53:18;;;;;;;10.02;3.05;;;9.70;99.90;;;;;;4990039;28;20042;-78
2022/11/03 04:55:46;;;;;;;10.98;2.28;;;9.70;99.90;;;;;;4980086;28;20057;-78
2022/11/03 04:58:28;;;;;;;9.65;2.85;;;9.70;99.90;;;;;;4990340;28;20101;-78
2022/11/03 05:00:59;;;;;;;8.63;2.78;;;9.70;99.90;;;;;;4990733;28;20046;-79
2022/11/03 05:03:34;;;;;;;11.60;2.53;;;9.80;99.90;;;;;;4990987;28;20042;-78
2022/11/03 05:06:10;;;;;;;7.35;2.30;;;9.90;99.90;;;;;;4991038;28;20058;-78
2022/11/03 05:08:35;;;;;;;11.25;2.50;;;9.90;99.90;;;;;;4989785;28;20038;-78
2022/11/03 05:11:40;;;;;;;7.53;2.40;;;9.90;99.90;;;;;;4990957;28;20774;-78
2022/11/03 05:14:28;;;;;;;8.07;2.38;;;9.90;99.90;;;;;;4971736;28;20058;-78
2022/11/03 05:16:54;;;;;;;7.18;2.45;;;9.90;99.90;;;;;;4988711;28;20092;-78
2022/11/03 05:19:32;;;;;;;9.48;2.50;;;10.00;99.90;;;;;;4990435;28;20125;-79
2022/11/03 05:22:01;;;;;;;8.23;2.90;;;10.00;99.90;;;;;;4971499;28;20493;-78
2022/11/03 05:24:28;;;;;;;10.10;2.65;;;9.90;99.90;;;;;;4982646;28;20535;-78
2022/11/03 05:26:56;;;;;;;10.35;2.38;;;9.90;99.90;;;;;;4973859;28;20062;-78
2022/11/03 05:29:27;;;;;;;7.32;2.75;;;10.00;99.90;;;;;;4989570;28;20151;-78
2022/11/03 05:31:54;;;;;;;7.15;2.10;;;9.90;99.90;;;;;;4990486;28;20441;-78
2022/11/03 05:34:29;;;;;;;11.32;2.60;;;9.90;99.90;;;;;;4990691;28;20046;-78
2022/11/03 05:37:24;;;;;;;15.07;2.80;;;9.40;99.90;;;;;;4990826;28;20050;-78
2022/11/03 05:39:50;;;;;;;8.48;2.53;;;10.00;99.90;;;;;;4986111;28;20161;-78
2022/11/03 05:42:22;;;;;;;10.43;2.78;;;10.00;99.90;;;;;;4989535;28;20058;-79
2022/11/03 05:44:49;;;;;;;9.53;3.20;;;10.00;99.90;;;;;;4989279;28;20050;-78
2022/11/03 05:47:36;;;;;;;12.35;2.67;;;9.90;99.90;;;;;;4991946;28;20309;-78
2022/11/03 05:50:26;;;;;;;12.25;3.30;;;9.90;99.90;;;;;;4982589;28;20053;-79
2022/11/03 05:52:55;;;;;;;6.65;2.58;;;10.00;99.90;;;;;;4989446;28;20148;-79
2022/11/03 05:55:29;;;;;;;12.10;2.85;;;10.00;99.90;;;;;;4989538;28;20122;-79
2022/11/03 05:57:57;;;;;;;9.88;2.42;;;9.90;99.90;;;;;;4981608;28;20501;-77
2022/11/03 06:00:36;;;;;;;8.18;2.58;;;10.00;99.90;;;;;;4983015;28;20073;-77
2022/11/03 06:03:03;;;;;;;9.18;3.05;;;9.90;99.90;;;;;;4989043;28;20196;-76
2022/11/03 06:05:30;;;;;;;11.82;3.00;;;10.00;99.90;;;;;;4989038;28;20484;-77
2022/11/03 06:08:00;;;;;;;9.95;3.25;;;10.00;99.90;;;;;;4991499;28;20129;-78
2022/11/03 06:10:34;;;;;;;8.27;2.78;;;10.00;99.90;;;;;;4989318;28;20080;-78
2022/11/03 06:13:12;;;;;;;10.18;2.65;;;10.00;99.90;;;;;;4977644;28;20042;-77
2022/11/03 06:15:42;;;;;;;7.60;2.85;;;10.00;99.90;;;;;;4983093;28;20050;-77
2022/11/03 06:18:20;;;;;;;6.75;2.78;;;11.20;99.90;;;;;;4989481;28;20046;-77
2022/11/03 06:21:02;;;;;;;9.45;2.97;;;10.10;99.90;;;;;;4988591;28;20089;-78
2022/11/03 06:23:28;;;;;;;8.93;2.97;;;10.00;99.90;;;;;;4985196;28;20042;-78
2022/11/03 06:25:55;;;;;;;10.05;2.78;;;10.00;99.90;;;;;;4989362;28;20149;-77
2022/11/03 06:28:25;;;;;;;8.80;3.25;;;10.00;99.90;;;;;;4987203;28;20514;-77
2022/11/03 06:30:51;;;;;;;11.20;3.38;;;10.00;99.90;;;;;;4971874;28;20087;-77
2022/11/03 06:33:26;;;;;;;10.18;3.08;;;10.00;99.90;;;;;;4973752;28;20136;-78
2022/11/03 06:35:55;;;;;;;10.55;3.47;;;10.00;99.90;;;;;;4986805;28;20749;-78
2022/11/03 06:38:24;;;;;;;12.13;3.55;;;10.00;99.90;;;;;;4989486;28;20065;-78
2022/11/03 06:40:51;;;;;;;9.57;2.90;;;9.90;99.90;;;;;;4991530;28;20058;-78
2022/11/03 06:43:21;;;;;;;11.93;3.10;;;9.90;99.90;;;;;;4993824;28;20046;-80
2022/11/03 06:45:53;;;;;;;10.75;3.47;;;10.80;99.90;;;;;;4987962;28;20507;-78
2022/11/03 06:48:32;;;;;;;8.40;2.60;;;9.90;99.90;;;;;;4989535;28;20038;-78
2022/11/03 06:50:58;;;;;;;8.32;2.85;;;9.90;99.90;;;;;;4988439;28;20050;-78
2022/11/03 06:53:27;;;;;;;8.65;2.80;;;9.90;99.90;;;;;;4989848;28;20504;-79
2022/11/03 06:55:53;;;;;;;8.77;2.88;;;9.90;99.90;;;;;;4989238;28;20054;-79
2022/11/03 06:58:23;;;;;;;12.55;3.08;;;9.90;99.90;;;;;;4987952;28;20085;-79
2022/11/03 07:00:49;;;;;;;12.43;2.95;;;9.90;99.90;;;;;;4989232;28;20447;-78
2022/11/03 07:03:32;;;;;;;10.02;3.08;;;10.10;99.90;;;;;;4990519;28;20042;-79
2022/11/03 07:06:08;;;;;;;8.25;2.92;;;10.00;99.90;;;;;;4987221;28;20031;-78
2022/11/03 07:08:53;;;;;;;9.75;3.35;;;10.00;99.90;;;;;;4987016;28;20074;-79
2022/11/03 07:11:27;;;;;;;12.15;3.75;;;10.00;99.90;;;;;;4974343;28;20058;-79
2022/11/03 07:14:01;;;;;;;7.57;2.88;;;10.00;99.90;;;;;;4963325;28;20046;-79
2022/11/03 07:17:03;;;;;;;7.85;2.67;;;10.00;99.90;;;;;;4990169;28;20069;-79
2022/11/03 07:19:36;;;;;;;6.83;2.70;;;10.10;99.90;;;;;;4980032;28;20116;-78
2022/11/03 07:22:08;;;;;;;8.50;2.95;;;10.10;99.90;;;;;;4979715;28;20297;-78
2022/11/03 07:24:38;;;;;;;9.77;2.88;;;10.20;99.90;;;;;;4969492;28;20058;-78
2022/11/03 07:27:25;;;;;;;8.85;3.00;;;10.30;99.90;;;;;;4987806;28;20077;-78
2022/11/03 07:29:57;;;;;;;9.93;3.42;;;10.40;99.90;;;;;;4989977;28;20130;-78
2022/11/03 07:32:27;;;;;;;7.40;3.20;;;10.50;99.90;;;;;;4990113;28;20069;-78
2022/11/03 07:35:01;;;;;;;10.05;3.40;;;10.60;99.90;;;;;;4985570;28;20100;-80
2022/11/03 07:37:27;;;;;;;9.82;3.33;;;10.70;99.90;;;;;;4961985;28;20038;-78
2022/11/03 07:39:53;;;;;;;8.02;3.13;;;10.70;99.90;;;;;;4969466;28;20113;-79
2022/11/03 07:42:22;;;;;;;15.45;3.35;;;10.80;99.90;;;;;;4970344;28;20042;-78
2022/11/03 07:44:49;;;;;;;7.38;3.03;;;10.80;99.90;;;;;;4988816;28;20518;-79
2022/11/03 07:47:33;;;;;;;15.27;3.72;;;10.90;99.90;;;;;;4972048;28;20161;-80
2022/11/03 07:49:58;;;;;;;8.02;3.47;;;10.90;99.90;;;;;;4988486;28;20046;-79
2022/11/03 07:52:28;;;;;;;9.20;3.13;;;11.00;99.90;;;;;;4975850;28;20057;-79
2022/11/03 07:54:57;;;;;;;15.40;4.18;;;11.00;99.90;;;;;;4971048;28;20494;-79
2022/11/03 07:57:30;;;;;;;12.27;4.50;;;11.10;99.90;;;;;;4968015;28;20078;-79
2022/11/03 08:00:08;;;;;;;10.23;3.05;;;11.10;99.90;;;;;;4969862;28;20618;-79
2022/11/03 08:02:41;;;;;;;8.00;3.33;;;11.10;99.90;;;;;;4968868;28;20502;-79
2022/11/03 08:05:07;;;;;;;9.70;3.30;;;11.30;99.90;;;;;;4970344;28;20394;-79
2022/11/03 08:07:33;;;;;;;12.95;3.05;;;11.30;99.90;;;;;;4980976;28;20420;-80
2022/11/03 08:09:58;;;;;;;11.48;4.10;;;11.30;99.90;;;;;;4971298;28;20046;-80
2022/11/03 08:12:24;;;;;;;16.63;3.08;;;11.40;99.90;;;;;;4969177;28;20465;-81
2022/11/03 08:14:49;;;;;;;10.68;2.95;;;11.50;99.90;;;;;;4968677;28;20039;-81
2022/11/03 08:17:15;;;;;;;11.52;3.22;;;11.50;99.90;;;;;;4951967;28;20043;-80
2022/11/03 08:19:41;;;;;;;10.85;2.95;;;11.60;99.90;;;;;;4967836;28;20125;-81
2022/11/03 08:22:06;;;;;;;8.82;3.33;;;11.60;99.90;;;;;;4969898;28;20046;-80
2022/11/03 08:24:32;;;;;;;8.43;3.38;;;11.70;99.90;;;;;;4969072;28;20373;-80
2022/11/03 08:26:58;;;;;;;8.77;3.10;;;11.70;99.90;;;;;;4968774;28;20521;-80
2022/11/03 08:29:26;;;;;;;12.90;3.63;;;11.80;99.90;;;;;;4968796;28;20055;-80
2022/11/03 08:31:52;;;;;;;12.15;3.90;;;11.80;99.90;;;;;;4968350;28;20046;-80
2022/11/03 08:34:18;;;;;;;9.52;3.30;;;11.90;99.90;;;;;;4969159;28;20065;-80
2022/11/03 08:36:44;;;;;;;10.52;3.58;;;11.80;99.90;;;;;;4969462;28;20469;-80
2022/11/03 08:39:10;;;;;;;9.30;3.20;;;11.90;99.90;;;;;;4974775;28;20859;-80
2022/11/03 08:41:35;;;;;;;7.97;3.17;;;11.90;99.90;;;;;;4982588;28;20057;-80
2022/11/03 08:44:01;;;;;;;7.40;3.25;;;12.00;99.90;;;;;;4987790;28;20420;-80
2022/11/03 08:46:27;;;;;;;10.43;3.08;;;12.00;99.90;;;;;;4988803;28;20132;-80
2022/11/03 08:48:52;;;;;;;7.95;2.78;;;12.10;99.90;;;;;;4988561;28;20046;-80
2022/11/03 08:51:18;;;;;;;10.80;3.72;;;12.10;99.90;;;;;;4986670;28;20487;-80
2022/11/03 08:53:44;;;;;;;10.27;3.22;;;12.20;99.90;;;;;;4988752;28;20488;-80
2022/11/03 08:56:10;;;;;;;12.50;3.38;;;12.20;99.90;;;;;;4987770;28;20472;-80
2022/11/03 08:58:36;;;;;;;9.93;3.67;;;12.30;99.90;;;;;;4971118;28;20046;-80
2022/11/03 09:01:02;;;;;;;8.77;3.83;;;12.30;99.90;;;;;;4989174;28;20658;-80
2022/11/03 09:03:27;;;;;;;8.85;2.80;;;12.40;99.90;;;;;;4989350;28;20133;-80
2022/11/03 09:05:53;;;;;;;8.27;2.90;;;12.50;99.90;;;;;;4989199;28;20041;-80
2022/11/03 09:08:18;;;;;;;8.20;3.15;;;12.50;99.90;;;;;;4986630;28;20038;-80
2022/11/03 09:10:44;;;;;;;11.10;3.40;;;12.60;99.90;;;;;;4987884;28;20412;-80
2022/11/03 09:13:09;;;;;;;9.93;4.05;;;12.60;99.90;;;;;;4987537;28;20042;-81
2022/11/03 09:15:35;;;;;;;8.13;3.45;;;12.70;99.90;;;;;;4989089;28;20117;-80
2022/11/03 09:18:01;;;;;;;10.65;3.28;;;12.80;99.90;;;;;;4987472;28;20088;-80
2022/11/03 09:20:27;;;;;;;7.22;3.08;;;13.60;99.90;;;;;;4987834;28;20464;-80
2022/11/03 09:22:53;;;;;;;9.50;3.33;;;12.90;99.90;;;;;;4989110;28;20503;-80
2022/11/03 09:25:18;;;;;;;11.52;3.08;;;13.50;99.90;;;;;;4984906;28;20082;-80
2022/11/03 09:27:44;;;;;;;8.15;3.13;;;13.00;99.90;;;;;;4987178;28;20130;-80
2022/11/03 09:30:10;;;;;;;10.05;3.05;;;13.10;99.90;;;;;;4988016;28;20047;-80
2022/11/03 09:32:36;;;;;;;9.82;3.47;;;13.20;99.90;;;;;;4989051;28;20142;-80
2022/11/03 09:35:03;;;;;;;9.82;2.97;;;13.30;99.90;;;;;;4989351;28;20077;-80
2022/11/03 09:37:29;;;;;;;12.25;3.28;;;13.30;99.90;;;;;;4988025;28;20121;-80
2022/11/03 09:39:55;;;;;;;10.07;2.40;;;13.90;99.90;;;;;;4989347;28;20065;-80
2022/11/03 09:42:21;;;;;;;11.30;2.97;;;13.60;99.90;;;;;;4986271;28;20089;-80
2022/11/03 09:44:48;;;;;;;6.35;2.72;;;13.70;99.90;;;;;;4971301;28;20193;-80
2022/11/03 09:47:23;;;;;;;7.82;3.15;;;13.80;99.90;;;;;;4971249;28;20121;-81
2022/11/03 09:49:50;;;;;;;13.68;3.65;;;14.00;99.90;;;;;;4971013;28;20446;-81
2022/11/03 09:52:21;;;;;;;9.93;3.30;;;14.10;99.90;;;;;;4954876;28;20058;-81
2022/11/03 09:54:46;;;;;;;11.77;3.05;;;14.10;99.90;;;;;;4971081;28;20162;-81
2022/11/03 09:57:15;;;;;;;10.25;3.20;;;14.30;99.90;;;;;;4972215;28;20113;-81
2022/11/03 09:59:43;;;;;;;9.52;2.92;;;14.30;99.90;;;;;;4991611;28;20412;-81
2022/11/03 10:02:37;;;;;;;6.18;2.53;;;14.30;99.90;;;;;;4990379;28;20507;-81
2022/11/03 10:05:03;;;;;;;7.47;2.45;;;14.30;99.90;;;;;;4979684;28;20054;-81
2022/11/03 10:07:30;;;;;;;14.60;3.08;;;14.30;99.90;;;;;;4971338;28;20090;-81
2022/11/03 10:09:58;;;;;;;8.68;2.30;;;14.30;99.90;;;;;;4970798;28;21085;-81
2022/11/03 10:12:25;;;;;;;8.00;2.70;;;14.30;99.90;;;;;;4971566;28;20050;-81
2022/11/03 10:14:52;;;;;;;6.45;2.75;;;14.40;99.90;;;;;;4971743;28;20054;-81
2022/11/03 10:17:20;;;;;;;12.40;2.63;;;14.50;99.90;;;;;;4973155;28;20055;-80
2022/11/03 10:19:51;;;;;;;10.43;2.42;;;14.60;99.90;;;;;;4990573;28;20046;-81
2022/11/03 10:22:21;;;;;;;8.95;2.78;;;14.70;99.90;;;;;;4974169;28;20046;-80
2022/11/03 10:24:47;;;;;;;11.38;2.72;;;14.80;99.90;;;;;;4989863;28;20093;-80
2022/11/03 10:27:24;;;;;;;9.23;2.70;;;15.00;99.90;;;;;;4988407;28;20078;-81
2022/11/03 10:30:10;;;;;;;8.88;2.92;;;15.00;99.90;;;;;;4991393;28;20050;-80
2022/11/03 10:32:36;;;;;;;7.03;2.70;;;15.10;99.90;;;;;;4988159;28;20116;-81
2022/11/03 10:35:32;;;;;;;8.00;2.35;;;15.10;99.90;;;;;;4990738;28;20086;-80
2022/11/03 10:38:37;;;;;;;6.55;2.50;;;14.40;99.90;;;;;;4972773;28;20090;-81
2022/11/03 10:41:10;;;;;;;7.63;2.85;;;15.00;99.90;;;;;;4990452;28;20061;-79
2022/11/03 10:43:37;;;;;;;9.20;2.70;;;15.00;99.90;;;;;;4990984;28;20136;-79
2022/11/03 10:46:19;;;;;;;7.82;2.45;;;15.00;99.90;;;;;;4986710;28;20065;-79
2022/11/03 10:49:05;;;;;;;9.85;2.55;;;15.00;99.90;;;;;;4984853;28;20837;-78
2022/11/03 10:51:32;;;;;;;8.43;2.40;;;15.10;99.90;;;;;;4988529;28;20097;-79
2022/11/03 10:53:58;;;;;;;7.50;2.10;;;15.10;99.90;;;;;;4990162;28;20062;-79
2022/11/03 10:56:24;;;;;;;8.82;2.67;;;15.10;99.90;;;;;;4987820;28;20046;-79
2022/11/03 10:58:50;;;;;;;6.13;2.45;;;15.10;99.90;;;;;;4989626;28;20047;-78
2022/11/03 11:01:16;;;;;;;6.97;2.28;;;15.20;99.90;;;;;;4989669;28;20493;-79
2022/11/03 11:03:43;;;;;;;5.68;1.90;;;15.20;99.90;;;;;;4970686;28;20039;-79
2022/11/03 11:06:24;;;;;;;8.40;2.53;;;15.00;99.90;;;;;;4979400;28;20050;-79
2022/11/03 11:08:53;;;;;;;6.47;2.17;;;15.60;99.90;;;;;;4969300;28;20097;-79
2022/11/03 11:11:20;;;;;;;5.25;2.38;;;15.70;99.90;;;;;;4969330;28;20382;-79
2022/11/03 11:14:24;;;;;;;7.80;1.95;;;15.70;99.90;;;;;;4983051;28;20056;-79
2022/11/03 11:16:55;;;;;;;9.18;2.58;;;15.80;99.90;;;;;;4989578;28;20061;-80
2022/11/03 11:19:22;;;;;;;8.18;1.88;;;15.80;99.90;;;;;;4974909;28;20061;-79
2022/11/03 11:21:49;;;;;;;6.20;2.33;;;15.70;99.90;;;;;;4968839;28;20046;-80
2022/11/03 11:24:43;;;;;;;8.80;3.03;;;15.60;99.90;;;;;;4985705;28;20051;-81
2022/11/03 11:27:31;;;;;;;8.73;2.60;;;15.60;99.90;;;;;;4979091;28;20053;-81
2022/11/03 11:30:03;;;;;;;5.20;2.10;;;15.50;99.90;;;;;;4985197;28;20413;-81
2022/11/03 11:32:38;;;;;;;10.13;2.45;;;15.50;99.90;;;;;;5002035;28;20061;-80
2022/11/03 11:35:07;;;;;;;5.70;1.92;;;15.60;99.90;;;;;;4970057;28;20050;-80
2022/11/03 11:37:35;;;;;;;7.13;2.30;;;15.50;99.90;;;;;;4924958;28;1864188;-80
2022/11/03 11:40:02;;;;;;;9.98;2.20;;;15.40;99.90;;;;;;4989362;28;20141;-81
2022/11/03 11:42:28;;;;;;;7.32;2.55;;;15.40;99.90;;;;;;4988256;28;20116;-81
2022/11/03 11:44:58;;;;;;;2.92;1.85;;;15.40;99.90;;;;;;5002486;28;20042;-81
2022/11/03 11:47:30;;;;;;;7.18;1.98;;;15.50;99.90;;;;;;4987307;28;20108;-80
2022/11/03 11:50:04;;;;;;;5.18;1.70;;;15.50;99.90;;;;;;4987845;28;20074;-80
2022/11/03 11:52:36;;;;;;;5.55;2.17;;;15.10;99.90;;;;;;4978682;28;20051;-80
2022/11/03 11:55:03;;;;;;;5.95;2.00;;;15.40;99.90;;;;;;4988163;28;20046;-80
2022/11/03 11:57:33;;;;;;;8.80;2.40;;;15.40;99.90;;;;;;4984434;28;20556;-80
2022/11/03 11:59:59;;;;;;;8.15;2.42;;;15.40;99.90;;;;;;4984465;28;20042;-80
2022/11/03 12:02:28;;;;;;;8.95;2.20;;;15.40;99.90;;;;;;4972186;28;20115;-80
2022/11/03 12:05:02;;;;;;;5.55;2.35;;;15.40;99.90;;;;;;4969069;28;20124;-80
2022/11/03 12:07:35;;;;;;;4.95;1.73;;;15.40;99.90;;;;;;4980869;28;20042;-80
2022/11/03 12:10:14;;;;;;;3.38;1.60;;;15.40;99.90;;;;;;4987066;28;20201;-80
2022/11/03 12:12:39;;;;;;;5.75;2.25;;;15.40;99.90;;;;;;4989113;28;20171;-80
2022/11/03 12:15:05;;;;;;;7.22;2.05;;;15.40;99.90;;;;;;4973019;28;20054;-80
2022/11/03 12:17:32;;;;;;;6.43;1.92;;;15.40;99.90;;;;;;4988152;28;20046;-81
2022/11/03 12:19:57;;;;;;;7.15;2.35;;;15.40;99.90;;;;;;4985656;28;20069;-80
2022/11/03 12:22:23;;;;;;;5.05;1.55;;;15.40;99.90;;;;;;4972060;28;20619;-80
2022/11/03 12:24:50;;;;;;;5.07;2.00;;;15.40;99.90;;;;;;4980454;28;20054;-80
2022/11/03 12:27:23;;;;;;;9.88;2.30;;;15.40;99.90;;;;;;4969420;28;20527;-80
2022/11/03 12:29:50;;;;;;;9.25;2.15;;;15.30;99.90;;;;;;4968484;28;20416;-80
2022/11/03 12:32:16;;;;;;;4.40;1.75;;;15.40;99.90;;;;;;4981306;28;20042;-80
2022/11/03 12:34:41;;;;;;;5.43;2.08;;;15.40;99.90;;;;;;4987913;28;20050;-80
2022/11/03 12:37:07;;;;;;;3.75;1.80;;;15.30;99.90;;;;;;4987808;28;20081;-81
2022/11/03 12:39:33;;;;;;;7.13;1.90;;;15.30;99.90;;;;;;4982702;28;20080;-80
2022/11/03 12:41:59;;;;;;;4.53;2.15;;;15.30;99.90;;;;;;4968075;28;20130;-80
2022/11/03 12:44:25;;;;;;;4.75;1.75;;;15.30;99.90;;;;;;4951823;28;20512;-80
2022/11/03 12:46:50;;;;;;;6.72;1.70;;;15.40;99.90;;;;;;4978105;28;20050;-79
2022/11/03 12:49:16;;;;;;;4.78;1.73;;;15.40;99.90;;;;;;4987467;28;20512;-81
2022/11/03 12:51:41;;;;;;;5.13;1.88;;;15.50;99.90;;;;;;4989070;28;20853;-80
2022/11/03 12:54:07;;;;;;;5.00;2.00;;;15.50;99.90;;;;;;4971463;28;20054;-79
2022/11/03 12:56:32;;;;;;;6.78;2.00;;;15.60;99.90;;;;;;4986871;28;20191;-79
2022/11/03 12:58:58;;;;;;;8.00;2.03;;;15.60;99.90;;;;;;4985873;28;20046;-79
2022/11/03 13:01:23;;;;;;;4.80;1.80;;;15.80;99.90;;;;;;4985817;28;20058;-79
2022/11/03 13:03:49;;;;;;;3.88;1.52;;;15.90;99.90;;;;;;4987492;28;20342;-79
2022/11/03 13:06:15;;;;;;;4.05;1.90;;;16.10;99.90;;;;;;4988769;28;20050;-79
2022/11/03 13:08:40;;;;;;;3.10;1.48;;;16.00;99.90;;;;;;4988062;28;20070;-79
2022/11/03 13:13:51;;;;;;;4.25;1.60;;;16.00;99.90;;;;;;4989058;28;20779;-79
2022/11/03 13:16:17;;;;;;;4.88;1.60;;;16.00;99.90;;;;;;4975638;28;20464;-79
2022/11/03 13:18:43;;;;;;;4.15;1.38;;;15.90;99.90;;;;;;4972365;28;20039;-79
2022/11/03 13:21:08;;;;;;;5.18;1.85;;;15.90;99.90;;;;;;4971527;28;20042;-79
2022/11/03 13:23:34;;;;;;;6.25;1.80;;;15.90;99.90;;;;;;4955905;28;20050;-79
2022/11/03 13:26:00;;;;;;;3.15;1.70;;;15.90;99.90;;;;;;4972035;28;20057;-80
2022/11/03 13:28:25;;;;;;;5.30;1.50;;;15.80;99.90;;;;;;4971181;28;20054;-80
2022/11/03 13:30:51;;;;;;;4.25;1.98;;;15.80;99.90;;;;;;4971445;28;20157;-80
2022/11/03 13:33:16;;;;;;;5.15;1.85;;;15.70;99.90;;;;;;4971159;28;20099;-79
2022/11/03 13:35:42;;;;;;;7.30;2.05;;;15.70;99.90;;;;;;4979719;28;20046;-79
2022/11/03 13:38:08;;;;;;;3.88;1.58;;;15.70;99.90;;;;;;4990747;28;20047;-79
2022/11/03 13:40:33;;;;;;;4.72;1.60;;;15.70;99.90;;;;;;4990794;28;20081;-79
2022/11/03 13:42:59;;;;;;;3.92;1.58;;;15.70;99.90;;;;;;4991309;28;20084;-79
2022/11/03 13:45:25;;;;;;;4.15;1.70;;;15.70;99.90;;;;;;4992051;28;20053;-79
2022/11/03 13:47:50;;;;;;;3.38;1.70;;;15.70;99.90;;;;;;4989764;28;20097;-80
2022/11/03 13:50:16;;;;;;;5.82;1.63;;;15.60;99.90;;;;;;4980038;28;20046;-79
2022/11/03 13:52:44;;;;;;;3.95;1.50;;;15.60;99.90;;;;;;4971447;28;20050;-80
2022/11/03 13:55:11;;;;;;;4.63;1.33;;;15.50;99.90;;;;;;4970958;28;20050;-79
2022/11/03 13:57:36;;;;;;;7.20;1.85;;;15.40;99.90;;;;;;4971641;28;20050;-79
2022/11/03 14:00:06;;;;;;;4.35;1.35;;;15.40;99.90;;;;;;4972137;28;20204;-80
2022/11/03 14:02:32;;;;;;;4.65;1.55;;;15.30;99.90;;;;;;4970471;28;20055;-79
2022/11/03 14:04:58;;;;;;;6.50;1.92;;;15.30;99.90;;;;;;4972423;28;20053;-79
2022/11/03 14:07:23;;;;;;;6.15;1.77;;;15.20;99.90;;;;;;4971278;28;20218;-80
2022/11/03 14:09:49;;;;;;;3.45;1.70;;;15.20;99.90;;;;;;4970685;28;20050;-79
2022/11/03 14:12:29;;;;;;;3.92;1.23;;;15.30;99.90;;;;;;4970092;28;20469;-80
2022/11/03 14:15:06;;;;;;;4.43;1.42;;;15.20;99.90;;;;;;4970663;28;20405;-80
2022/11/03 14:17:32;;;;;;;4.75;1.10;;;15.20;99.90;;;;;;4970510;28;20440;-79
2022/11/03 14:19:57;;;;;;;4.20;1.20;;;15.20;99.90;;;;;;4970634;28;20133;-79
2022/11/03 14:22:23;;;;;;;4.65;1.40;;;15.30;99.90;;;;;;4967619;28;20129;-80
2022/11/03 14:24:50;;;;;;;4.55;1.60;;;15.20;99.90;;;;;;4989392;28;20097;-80
2022/11/03 14:27:17;;;;;;;4.93;1.50;;;15.20;99.90;;;;;;4989619;28;20166;-80
2022/11/03 14:29:43;;;;;;;6.60;1.83;;;15.20;99.90;;;;;;4972333;28;20097;-79
2022/11/03 14:32:10;;;;;;;5.30;1.85;;;15.20;99.90;;;;;;4953830;28;20082;-80
2022/11/03 14:34:37;;;;;;;5.22;2.00;;;15.20;99.90;;;;;;4970748;28;20369;-80
2022/11/03 14:37:07;;;;;;;3.10;1.40;;;15.20;99.90;;;;;;4970834;28;20525;-80
2022/11/03 14:39:33;;;;;;;4.60;1.63;;;15.20;99.90;;;;;;4953534;28;20055;-80
2022/11/03 14:42:05;;;;;;;5.20;1.45;;;15.20;99.90;;;;;;4969937;28;20086;-80